createdAt,value
2019-01-06T00:01:33.385Z,65.62
2019-01-06T00:04:27.585Z,61.05
2019-01-06T00:07:14.637Z,71.55
2019-01-06T00:10:01.825Z,67.65
2019-01-06T00:13:05.513Z,50.48
2019-01-06T00:15:52.317Z,56.58
2019-01-06T00:18:43.760Z,55.58
2019-01-06T00:21:44.300Z,66.40
2019-01-06T00:24:33.326Z,55.88
2019-01-06T00:27:27.435Z,36.73
2019-01-06T00:30:14.717Z,38.38
2019-01-06T00:33:15.543Z,40.28
2019-01-06T00:36:06.549Z,39.65
2019-01-06T00:38:44.150Z,34.05
2019-01-06T00:41:31.181Z,36.68
2019-01-06T00:44:19.409Z,31.50
2019-01-06T00:47:11.273Z,30.17
2019-01-06T00:49:59.483Z,29.23
2019-01-06T00:53:06.325Z,30.80
2019-01-06T00:55:53.695Z,29.10
2019-01-06T00:58:41.953Z,30.72
2019-01-06T01:01:30.205Z,27.93
2019-01-06T01:04:24.378Z,24.02
2019-01-06T01:07:12.634Z,22.50
2019-01-06T01:09:59.579Z,28.30
2019-01-06T01:12:56.727Z,23.18
2019-01-06T01:15:47.755Z,25.37
2019-01-06T01:18:42.961Z,26.35
2019-01-06T01:21:40.339Z,26.80
2019-01-06T01:24:27.556Z,25.68
2019-01-06T01:27:28.168Z,26.35
2019-01-06T01:30:19.386Z,24.92
2019-01-06T01:33:10.585Z,28.30
2019-01-06T01:36:04.968Z,32.67
2019-01-06T01:38:59.461Z,34.48
2019-01-06T01:41:47.758Z,28.87
2019-01-06T01:44:51.743Z,35.52
2019-01-06T01:47:38.921Z,32.55
2019-01-06T01:50:27.175Z,40.20
2019-01-06T01:53:14.361Z,40.28
2019-01-06T01:56:02.652Z,41.23
2019-01-06T01:58:53.967Z,46.75
2019-01-06T02:02:00.497Z,52.43
2019-01-06T02:04:47.397Z,52.62
2019-01-06T02:07:34.258Z,53.45
2019-01-06T02:10:22.506Z,57.88
2019-01-06T02:13:09.380Z,61.15
2019-01-06T02:15:59.128Z,53.17
2019-01-06T02:18:53.418Z,47.73
2019-01-06T02:21:40.567Z,51.88
2019-01-06T02:24:35.026Z,47.67
2019-01-06T02:27:29.107Z,41.23
2019-01-06T02:30:16.008Z,44.83
2019-01-06T02:33:16.552Z,45.03
2019-01-06T02:36:14.129Z,38.78
2019-01-06T02:39:01.045Z,45.05
2019-01-06T02:41:43.787Z,43.55
2019-01-06T02:44:43.734Z,44.58
2019-01-06T02:47:47.157Z,42.85
2019-01-06T02:50:34.028Z,42.40
2019-01-06T02:53:25.388Z,41.35
2019-01-06T02:56:22.676Z,40.50
2019-01-06T02:59:10.925Z,41.30
2019-01-06T03:01:58.053Z,41.37
2019-01-06T03:04:55.161Z,40.65
2019-01-06T03:07:42.336Z,47.10
2019-01-06T03:10:30.591Z,37.65
2019-01-06T03:13:17.760Z,43.87
2019-01-06T03:16:04.925Z,42.62
2019-01-06T03:18:56.310Z,34.05
2019-01-06T03:21:43.336Z,30.40
2019-01-06T03:24:37.622Z,29.85
2019-01-06T03:27:34.930Z,29.05
2019-01-06T03:30:26.538Z,28.38
2019-01-06T03:33:13.382Z,31.57
2019-01-06T03:36:01.686Z,30.40
2019-01-06T03:38:51.682Z,34.55
2019-01-06T03:41:52.311Z,34.85
2019-01-06T03:44:46.414Z,29.80
2019-01-06T03:47:52.933Z,32.80
2019-01-06T03:50:39.773Z,32.90
2019-01-06T03:53:43.175Z,43.30
2019-01-06T03:56:30.333Z,45.35
2019-01-06T03:59:24.714Z,40.92
2019-01-06T04:02:13.005Z,40.60
2019-01-06T04:04:53.548Z,55.08
2019-01-06T04:07:53.907Z,58.38
2019-01-06T04:10:41.194Z,51.98
2019-01-06T04:13:28.338Z,51.40
2019-01-06T04:16:32.082Z,45.20
2019-01-06T04:19:20.333Z,55.05
2019-01-06T04:22:07.782Z,53.60
2019-01-06T04:24:59.072Z,50.38
2019-01-06T04:27:50.411Z,35.03
2019-01-06T04:30:50.865Z,36.00
2019-01-06T04:33:48.788Z,34.45
2019-01-06T04:36:35.619Z,36.45
2019-01-06T04:39:43.934Z,35.98
2019-01-06T04:42:40.242Z,36.13
2019-01-06T04:45:28.484Z,39.33
2019-01-06T04:48:22.518Z,41.83
2019-01-06T04:51:16.845Z,39.88
2019-01-06T04:54:08.107Z,45.40
2019-01-06T04:57:08.712Z,37.85
2019-01-06T04:59:56.034Z,37.17
2019-01-06T05:02:59.957Z,37.23
2019-01-06T05:05:47.214Z,36.40
2019-01-06T05:08:34.223Z,34.98
2019-01-06T05:11:40.805Z,34.92
2019-01-06T05:14:28.549Z,33.92
2019-01-06T05:17:35.331Z,39.48
2019-01-06T05:20:22.433Z,34.43
2019-01-06T05:23:12.972Z,39.23
2019-01-06T05:26:19.403Z,34.23
2019-01-06T05:29:16.898Z,35.43
2019-01-06T05:32:08.942Z,37.80
2019-01-06T05:34:57.213Z,34.25
2019-01-06T05:37:44.415Z,34.95
2019-01-06T05:40:35.696Z,30.62
2019-01-06T05:43:35.794Z,30.30
2019-01-06T05:46:26.831Z,31.75
2019-01-06T05:49:21.272Z,33.88
2019-01-06T05:52:21.580Z,28.12
2019-01-06T05:55:08.726Z,28.55
2019-01-06T05:57:51.860Z,29.57
2019-01-06T06:00:47.044Z,31.23
2019-01-06T06:03:47.452Z,31.02
2019-01-06T06:06:50.851Z,35.68
2019-01-06T06:09:47.566Z,31.80
2019-01-06T06:12:35.796Z,26.90
2019-01-06T06:15:36.400Z,31.30
2019-01-06T06:18:43.080Z,27.45
2019-01-06T06:21:33.945Z,27.13
2019-01-06T06:24:23.268Z,33.05
2019-01-06T06:27:10.458Z,29.37
2019-01-06T06:30:06.305Z,31.00
2019-01-06T06:32:53.467Z,33.20
2019-01-06T06:35:50.990Z,32.83
2019-01-06T06:38:38.284Z,30.37
2019-01-06T06:41:30.802Z,30.48
2019-01-06T06:44:25.141Z,27.77
2019-01-06T06:47:12.121Z,33.67
2019-01-06T06:50:18.622Z,30.05
2019-01-06T06:53:16.277Z,28.60
2019-01-06T06:56:10.718Z,28.25
2019-01-06T06:58:58.981Z,27.95
2019-01-06T07:02:36.510Z,20.45
2019-01-06T07:05:34.413Z,18.17
2019-01-06T07:08:21.341Z,17.85
2019-01-06T07:11:15.525Z,17.05
2019-01-06T07:14:03.673Z,13.25
2019-01-06T07:17:28.165Z,17.90
2019-01-06T07:20:16.390Z,10.48
2019-01-06T07:23:11.029Z,11.68
2019-01-06T07:25:58.411Z,11.95
2019-01-06T07:28:46.657Z,11.45
2019-01-06T07:31:37.747Z,13.13
2019-01-06T07:34:24.257Z,10.13
2019-01-06T07:37:11.545Z,12.20
2019-01-06T07:40:08.884Z,12.40
2019-01-06T07:42:57.084Z,11.48
2019-01-06T07:45:50.953Z,9.45
2019-01-06T07:48:38.801Z,15.25
2019-01-06T07:51:27.055Z,11.78
2019-01-06T07:54:27.469Z,9.43
2019-01-06T07:57:14.654Z,13.22
2019-01-06T08:00:01.595Z,7.83
2019-01-06T08:02:58.731Z,9.45
2019-01-06T08:05:53.046Z,10.40
2019-01-06T08:08:56.749Z,9.28
2019-01-06T08:11:48.687Z,17.35
2019-01-06T08:14:55.118Z,15.93
2019-01-06T08:17:42.032Z,17.40
2019-01-06T08:20:29.097Z,15.00
2019-01-06T08:23:21.939Z,14.05
2019-01-06T08:26:19.357Z,9.65
2019-01-06T08:29:22.992Z,12.53
2019-01-06T08:32:12.492Z,8.35
2019-01-06T08:34:59.742Z,8.95
2019-01-06T08:37:51.018Z,10.08
2019-01-06T08:40:38.003Z,9.60
2019-01-06T08:43:23.516Z,8.88
2019-01-06T08:46:10.602Z,10.55
2019-01-06T08:49:07.982Z,9.70
2019-01-06T08:52:07.359Z,11.85
2019-01-06T08:54:50.081Z,8.38
2019-01-06T08:57:38.335Z,11.12
2019-01-06T09:00:33.434Z,21.15
2019-01-06T09:03:21.695Z,12.93
2019-01-06T09:06:18.982Z,12.05
2019-01-06T09:09:07.247Z,12.47
2019-01-06T09:11:54.369Z,11.83
2019-01-06T09:14:41.954Z,10.58
2019-01-06T09:17:43.165Z,11.10
2019-01-06T09:20:32.395Z,9.38
2019-01-06T09:23:26.603Z,10.03
2019-01-06T09:26:13.529Z,12.05
2019-01-06T09:29:14.147Z,10.80
2019-01-06T09:32:02.542Z,13.32
2019-01-06T09:34:49.634Z,10.63
2019-01-06T09:37:40.793Z,12.03
2019-01-06T09:40:27.890Z,9.53
2019-01-06T09:43:21.921Z,12.70
2019-01-06T09:46:21.424Z,12.23
2019-01-06T09:49:24.909Z,13.32
2019-01-06T09:52:12.022Z,10.70
2019-01-06T09:55:06.099Z,12.80
2019-01-06T09:57:54.546Z,12.58
2019-01-06T10:00:41.885Z,16.00
2019-01-06T10:03:29.252Z,13.78
2019-01-06T10:06:27.024Z,22.45
2019-01-06T10:09:21.365Z,13.88
2019-01-06T10:12:18.839Z,13.60
2019-01-06T10:15:05.836Z,13.60
2019-01-06T10:17:53.443Z,12.20
2019-01-06T10:21:00.233Z,13.40
2019-01-06T10:23:48.533Z,11.88
2019-01-06T10:26:36.971Z,13.35
2019-01-06T10:29:25.269Z,12.25
2019-01-06T10:32:31.749Z,16.10
2019-01-06T10:35:32.177Z,14.45
2019-01-06T10:38:24.249Z,14.70
2019-01-06T10:41:11.078Z,13.20
2019-01-06T10:44:03.447Z,11.03
2019-01-06T10:46:54.776Z,11.93
2019-01-06T10:49:42.094Z,12.82
2019-01-06T10:52:49.948Z,14.80
2019-01-06T10:55:36.610Z,14.47
2019-01-06T10:58:23.263Z,15.38
2019-01-06T11:01:17.525Z,17.15
2019-01-06T11:04:04.730Z,12.20
2019-01-06T11:06:51.940Z,13.22
2019-01-06T11:09:52.602Z,14.80
2019-01-06T11:12:39.033Z,16.90
2019-01-06T11:15:27.646Z,16.32
2019-01-06T11:18:15.913Z,15.30
2019-01-06T11:21:04.250Z,16.73
2019-01-06T11:23:51.370Z,16.15
2019-01-06T11:26:39.678Z,16.05
2019-01-06T11:29:32.804Z,19.60
2019-01-06T11:32:36.468Z,16.80
2019-01-06T11:35:36.990Z,17.65
2019-01-06T11:38:24.420Z,12.07
2019-01-06T11:41:18.937Z,15.88
2019-01-06T11:44:05.903Z,11.80
2019-01-06T11:47:06.226Z,12.37
2019-01-06T11:50:03.634Z,16.55
2019-01-06T11:52:52.967Z,18.73
2019-01-06T11:55:47.183Z,15.65
2019-01-06T11:58:38.963Z,16.50
2019-01-06T12:01:25.927Z,14.23
2019-01-06T12:04:14.178Z,11.43
2019-01-06T12:07:01.559Z,11.95
2019-01-06T12:09:53.052Z,13.25
2019-01-06T12:12:56.531Z,11.70
2019-01-06T12:15:50.782Z,13.63
2019-01-06T12:18:51.574Z,19.10
2019-01-06T12:21:42.983Z,14.65
2019-01-06T12:24:54.342Z,15.23
2019-01-06T12:27:42.194Z,14.57
2019-01-06T12:30:30.507Z,15.93
2019-01-06T12:33:17.336Z,14.27
2019-01-06T12:36:24.321Z,11.77
2019-01-06T12:39:28.004Z,16.77
2019-01-06T12:42:16.302Z,12.47
2019-01-06T12:45:07.580Z,13.87
2019-01-06T12:47:54.759Z,12.35
2019-01-06T12:50:52.177Z,14.85
2019-01-06T12:53:40.563Z,17.03
2019-01-06T12:56:31.197Z,19.50
2019-01-06T12:59:18.365Z,19.27
2019-01-06T13:02:06.644Z,12.53
2019-01-06T13:04:57.828Z,11.22
2019-01-06T13:07:46.300Z,12.53
2019-01-06T13:10:33.425Z,12.13
2019-01-06T13:13:20.427Z,10.82
2019-01-06T13:16:07.332Z,10.50
2019-01-06T13:19:10.715Z,14.67
2019-01-06T13:22:07.784Z,12.60
2019-01-06T13:24:56.752Z,11.53
2019-01-06T13:27:57.179Z,15.40
2019-01-06T13:30:38.645Z,16.25
2019-01-06T13:33:36.428Z,21.07
2019-01-06T13:36:26.296Z,13.30
2019-01-06T13:39:20.388Z,13.40
2019-01-06T13:42:18.148Z,10.23
2019-01-06T13:45:22.269Z,12.37
2019-01-06T13:48:22.886Z,11.27
2019-01-06T13:51:29.588Z,14.23
2019-01-06T13:54:16.460Z,15.93
2019-01-06T13:57:03.768Z,16.27
2019-01-06T13:59:50.986Z,23.30
2019-01-06T14:02:37.863Z,19.77
2019-01-06T14:05:25.147Z,21.40
2019-01-06T14:08:15.453Z,20.80
2019-01-06T14:11:09.700Z,21.87
2019-01-06T14:14:06.991Z,21.70
2019-01-06T14:16:55.359Z,21.37
2019-01-06T14:19:42.434Z,17.77
2019-01-06T14:22:27.917Z,13.50
2019-01-06T14:25:25.196Z,15.40
2019-01-06T14:28:31.518Z,13.17
2019-01-06T14:31:18.425Z,13.93
2019-01-06T14:34:18.886Z,16.00
2019-01-06T14:37:10.240Z,10.93
2019-01-06T14:39:57.411Z,13.80
2019-01-06T14:42:44.296Z,12.17
2019-01-06T14:45:38.821Z,11.57
2019-01-06T14:48:31.152Z,11.93
2019-01-06T14:51:22.465Z,14.87
2019-01-06T14:54:09.632Z,14.10
2019-01-06T14:56:56.581Z,19.33
2019-01-06T14:59:52.012Z,19.47
2019-01-06T15:02:46.388Z,17.97
2019-01-06T15:05:41.669Z,16.27
2019-01-06T15:08:29.899Z,17.63
2019-01-06T15:11:18.175Z,17.23
2019-01-06T15:14:18.621Z,20.12
2019-01-06T15:17:05.554Z,14.57
2019-01-06T15:20:03.100Z,12.43
2019-01-06T15:22:48.950Z,13.05
2019-01-06T15:25:49.381Z,16.82
2019-01-06T15:28:46.807Z,15.55
2019-01-06T15:31:38.092Z,21.35
2019-01-06T15:34:25.049Z,16.65
2019-01-06T15:37:19.097Z,12.85
2019-01-06T15:40:16.995Z,17.00
2019-01-06T15:43:23.843Z,14.25
2019-01-06T15:46:11.200Z,15.20
2019-01-06T15:48:59.460Z,14.15
2019-01-06T15:51:46.588Z,17.50
2019-01-06T15:54:40.940Z,14.65
2019-01-06T15:57:29.187Z,17.00
2019-01-06T16:00:17.029Z,16.02
2019-01-06T16:03:08.154Z,21.48
2019-01-06T16:05:56.421Z,19.27
2019-01-06T16:08:54.663Z,20.70
2019-01-06T16:11:40.444Z,20.97
2019-01-06T16:14:28.703Z,19.87
2019-01-06T16:17:35.481Z,16.62
2019-01-06T16:20:22.300Z,13.60
2019-01-06T16:23:17.089Z,16.60
2019-01-06T16:26:11.490Z,16.05
2019-01-06T16:28:55.647Z,13.50
2019-01-06T16:31:52.151Z,13.10
2019-01-06T16:34:40.820Z,16.32
2019-01-06T16:37:29.111Z,14.45
2019-01-06T16:40:26.478Z,14.85
2019-01-06T16:43:24.804Z,16.70
2019-01-06T16:46:27.030Z,16.82
2019-01-06T16:49:13.231Z,17.25
2019-01-06T16:52:01.438Z,16.00
2019-01-06T16:54:48.600Z,13.68
2019-01-06T16:57:39.225Z,17.73
2019-01-06T17:00:42.699Z,22.87
2019-01-06T17:03:34.089Z,14.43
2019-01-06T17:06:21.367Z,16.57
2019-01-06T17:09:18.630Z,18.30
2019-01-06T17:12:10.011Z,16.15
2019-01-06T17:14:57.624Z,17.80
2019-01-06T17:17:58.204Z,16.48
2019-01-06T17:20:55.528Z,17.65
2019-01-06T17:23:55.789Z,16.93
2019-01-06T17:26:47.099Z,18.73
2019-01-06T17:29:31.749Z,19.92
2019-01-06T17:32:18.971Z,18.60
2019-01-06T17:35:06.182Z,23.77
2019-01-06T17:37:57.421Z,24.32
2019-01-06T17:40:44.700Z,21.70
2019-01-06T17:43:32.362Z,23.05
2019-01-06T17:46:19.313Z,15.18
2019-01-06T17:49:34.297Z,17.95
2019-01-06T17:52:21.269Z,15.95
2019-01-06T17:55:18.951Z,18.77
2019-01-06T17:58:11.824Z,27.15
2019-01-06T18:01:15.500Z,20.60
2019-01-06T18:04:03.799Z,22.35
2019-01-06T18:06:51.844Z,22.45
2019-01-06T18:09:40.830Z,20.75
2019-01-06T18:12:27.931Z,22.37
2019-01-06T18:15:14.867Z,21.27
2019-01-06T18:18:12.600Z,18.92
2019-01-06T18:21:09.963Z,14.95
2019-01-06T18:24:03.268Z,15.72
2019-01-06T18:27:00.852Z,17.48
2019-01-06T18:29:46.343Z,15.28
2019-01-06T18:32:35.007Z,14.43
2019-01-06T18:35:32.445Z,15.38
2019-01-06T18:38:27.956Z,17.60
2019-01-06T18:41:12.780Z,15.45
2019-01-06T18:44:13.533Z,13.70
2019-01-06T18:47:02.770Z,15.35
2019-01-06T18:49:53.902Z,14.55
2019-01-06T18:52:41.999Z,12.82
2019-01-06T18:55:30.262Z,16.15
2019-01-06T18:58:34.014Z,14.73
2019-01-06T19:01:21.218Z,17.02
2019-01-06T19:04:08.500Z,17.27
2019-01-06T19:07:02.838Z,14.23
2019-01-06T19:09:47.522Z,20.17
2019-01-06T19:12:38.528Z,11.60
2019-01-06T19:15:21.066Z,11.43
2019-01-06T19:18:08.388Z,14.05
2019-01-06T19:20:55.441Z,10.18
2019-01-06T19:23:42.372Z,10.38
2019-01-06T19:26:41.006Z,10.98
2019-01-06T19:29:35.065Z,13.13
2019-01-06T19:32:32.539Z,12.55
2019-01-06T19:35:19.498Z,12.65
2019-01-06T19:38:10.015Z,11.93
2019-01-06T19:40:57.353Z,9.00
2019-01-06T19:43:42.880Z,10.30
2019-01-06T19:46:34.484Z,10.60
2019-01-06T19:49:28.766Z,10.63
2019-01-06T19:52:27.402Z,10.68
2019-01-06T19:55:31.158Z,12.13
2019-01-06T19:58:21.776Z,10.88
2019-01-06T20:01:25.030Z,11.55
2019-01-06T20:04:19.353Z,12.98
2019-01-06T20:07:08.125Z,13.25
2019-01-06T20:10:00.757Z,13.00
2019-01-06T20:12:58.049Z,11.50
2019-01-06T20:15:45.260Z,11.05
2019-01-06T20:18:48.906Z,11.20
2019-01-06T20:21:34.945Z,13.15
2019-01-06T20:24:23.256Z,11.78
2019-01-06T20:27:16.133Z,10.53
2019-01-06T20:30:09.122Z,12.33
2019-01-06T20:33:04.374Z,11.63
2019-01-06T20:35:58.454Z,10.82
2019-01-06T20:38:55.980Z,11.12
2019-01-06T20:41:46.956Z,11.33
2019-01-06T20:44:34.351Z,13.72
2019-01-06T20:47:37.955Z,10.93
2019-01-06T20:50:35.525Z,10.10
2019-01-06T20:53:38.878Z,10.18
2019-01-06T20:56:42.950Z,10.32
2019-01-06T20:59:33.747Z,9.08
2019-01-06T21:02:34.041Z,9.78
2019-01-06T21:05:25.121Z,9.30
2019-01-06T21:08:26.790Z,8.73
2019-01-06T21:11:09.143Z,8.33
2019-01-06T21:13:56.293Z,8.60
2019-01-06T21:16:43.486Z,7.50
2019-01-06T21:19:37.751Z,7.47
2019-01-06T21:22:29.066Z,8.43
2019-01-06T21:25:16.480Z,8.48
2019-01-06T21:28:02.403Z,8.85
2019-01-06T21:30:59.821Z,9.48
2019-01-06T21:33:49.262Z,9.15
2019-01-06T21:36:56.219Z,8.55
2019-01-06T21:39:42.970Z,7.97
2019-01-06T21:42:26.349Z,7.95
2019-01-06T21:45:08.321Z,9.48
2019-01-06T21:47:56.563Z,7.30
2019-01-06T21:50:43.772Z,7.03
2019-01-06T21:53:24.602Z,8.25
2019-01-06T21:56:22.223Z,9.15
2019-01-06T21:59:09.227Z,10.13
2019-01-06T22:01:51.321Z,9.65
2019-01-06T22:04:48.647Z,9.85
2019-01-06T22:07:36.887Z,10.53
2019-01-06T22:10:24.215Z,9.93
2019-01-06T22:13:30.994Z,10.25
2019-01-06T22:16:18.052Z,10.38
2019-01-06T22:19:06.357Z,10.10
2019-01-06T22:22:13.021Z,10.30
2019-01-06T22:25:13.330Z,9.38
2019-01-06T22:28:05.209Z,8.38
2019-01-06T22:30:59.469Z,10.05
2019-01-06T22:33:53.865Z,8.90
2019-01-06T22:36:40.746Z,8.68
2019-01-06T22:39:38.021Z,9.55
2019-01-06T22:42:29.368Z,9.03
2019-01-06T22:45:14.372Z,8.23
2019-01-06T22:48:18.158Z,9.55
2019-01-06T22:51:20.708Z,10.45
2019-01-06T22:54:20.982Z,8.08
2019-01-06T22:57:08.030Z,9.45
2019-01-06T22:59:55.054Z,11.22
2019-01-06T23:02:42.281Z,9.83
2019-01-06T23:05:32.727Z,7.45
2019-01-06T23:08:33.446Z,10.18
2019-01-06T23:11:27.600Z,10.15
2019-01-06T23:14:27.896Z,8.55
2019-01-06T23:17:24.647Z,9.25
2019-01-06T23:20:07.534Z,7.45
2019-01-06T23:23:14.187Z,10.23
2019-01-06T23:26:02.146Z,10.78
2019-01-06T23:28:43.881Z,9.78
2019-01-06T23:31:41.477Z,9.05
2019-01-06T23:34:32.727Z,9.35
2019-01-06T23:37:18.815Z,8.15
2019-01-06T23:40:22.911Z,6.87
2019-01-06T23:43:13.923Z,8.30
2019-01-06T23:46:02.178Z,6.37
2019-01-06T23:48:49.396Z,8.05
2019-01-06T23:51:55.915Z,8.30
2019-01-06T23:54:56.215Z,7.35
2019-01-06T23:57:56.617Z,9.80
